Time;durP1;ratioP1;P1;durP2;ratioP2;P2;SDS_P1;SDS_P2;PMS_P1;PMS_P2;Temp;Humidity;BMP_temperature;BMP_pressure;BME280_temperature;BME280_humidity;BME280_pressure;Samples;Min_cycle;Max_cycle;Signal;HPM_P1;HPM_P2
2023/01/26 00:01:39;;;;;;;19.13;13.60;;;;;;;;;;5032737;28;20049;-70
2023/01/26 00:04:04;;;;;;;19.35;14.32;;;;;;;;;;5032691;28;20405;-70
2023/01/26 00:06:30;;;;;;;20.58;13.70;;;;;;;;;;5034164;28;20037;-70
2023/01/26 00:08:56;;;;;;;18.23;13.27;;;;;;;;;;5034355;28;20033;-69
2023/01/26 00:11:25;;;;;;;15.60;12.23;;;;;;;;;;5032119;28;20034;-69
2023/01/26 00:13:51;;;;;;;16.63;12.27;;;;;;;;;;5032724;28;20064;-69
2023/01/26 00:16:16;;;;;;;17.17;12.40;;;;;;;;;;5033937;28;20238;-70
2023/01/26 00:18:42;;;;;;;17.55;12.57;;;;;;;;;;5033998;28;20040;-70
2023/01/26 00:21:10;;;;;;;18.60;13.45;;;;;;;;;;5033924;28;20030;-70
2023/01/26 00:23:35;;;;;;;23.35;16.67;;;;;;;;;;5032797;28;20029;-69
2023/01/26 00:26:01;;;;;;;25.80;16.73;;;;;;;;;;5034145;28;20075;-69
2023/01/26 00:28:27;;;;;;;18.88;13.40;;;;;;;;;;5034268;28;20029;-70
2023/01/26 00:30:53;;;;;;;20.08;13.52;;;;;;;;;;5032885;28;20476;-70
2023/01/26 00:33:19;;;;;;;18.75;13.55;;;;;;;;;;5032559;28;20017;-70
2023/01/26 00:35:52;;;;;;;18.08;13.02;;;;;;;;;;5032554;28;20531;-70
2023/01/26 00:38:17;;;;;;;16.30;12.95;;;;;;;;;;5032641;28;20041;-68
2023/01/26 00:40:43;;;;;;;15.85;12.88;;;;;;;;;;5032303;28;20033;-68
2023/01/26 00:43:08;;;;;;;16.85;12.23;;;;;;;;;;5033355;28;20028;-69
2023/01/26 00:45:34;;;;;;;17.52;12.63;;;;;;;;;;5033719;28;20070;-68
2023/01/26 00:47:59;;;;;;;19.85;13.10;;;;;;;;;;5033785;28;20119;-68
2023/01/26 00:50:25;;;;;;;17.42;12.07;;;;;;;;;;5033540;28;20041;-66
2023/01/26 00:52:50;;;;;;;17.88;12.48;;;;;;;;;;5033530;28;20662;-67
2023/01/26 00:55:15;;;;;;;19.50;14.13;;;;;;;;;;5033535;28;20033;-68
2023/01/26 00:57:41;;;;;;;22.95;15.00;;;;;;;;;;5033636;28;20026;-66
2023/01/26 01:00:07;;;;;;;20.20;14.23;;;;;;;;;;5033374;28;20045;-67
2023/01/26 01:02:33;;;;;;;19.00;14.10;;;;;;;;;;5033464;28;20025;-67
2023/01/26 01:04:58;;;;;;;20.25;14.48;;;;;;;;;;5033580;28;20048;-66
2023/01/26 01:07:24;;;;;;;17.88;12.93;;;;;;;;;;5032292;28;20021;-66
2023/01/26 01:09:50;;;;;;;17.00;12.73;;;;;;;;;;5032246;28;20052;-69
2023/01/26 01:12:15;;;;;;;18.00;13.15;;;;;;;;;;5032212;28;20021;-69
2023/01/26 01:14:40;;;;;;;19.85;14.32;;;;;;;;;;5032095;28;20087;-69
2023/01/26 01:17:06;;;;;;;16.08;12.27;;;;;;;;;;5033431;28;20194;-67
2023/01/26 01:19:31;;;;;;;16.95;13.45;;;;;;;;;;5032244;28;20033;-69
2023/01/26 01:21:57;;;;;;;15.77;12.45;;;;;;;;;;5033003;28;20124;-70
2023/01/26 01:24:22;;;;;;;14.93;12.25;;;;;;;;;;5036086;28;20030;-69
2023/01/26 01:26:48;;;;;;;16.17;12.50;;;;;;;;;;5037380;28;20030;-69
2023/01/26 01:29:13;;;;;;;19.20;13.85;;;;;;;;;;5037444;28;20014;-68
2023/01/26 01:31:40;;;;;;;20.25;14.15;;;;;;;;;;5037209;28;20465;-69
2023/01/26 01:34:05;;;;;;;20.60;14.00;;;;;;;;;;5019651;28;20037;-69
2023/01/26 01:36:31;;;;;;;22.73;14.68;;;;;;;;;;5035896;28;20388;-69
2023/01/26 01:38:56;;;;;;;18.27;13.32;;;;;;;;;;5035904;28;20033;-69
2023/01/26 01:41:23;;;;;;;19.40;13.27;;;;;;;;;;5035941;28;20026;-68
2023/01/26 01:43:50;;;;;;;20.83;13.57;;;;;;;;;;5035562;28;20033;-68
2023/01/26 01:46:35;;;;;;;17.08;12.68;;;;;;;;;;5037079;28;20037;-69
2023/01/26 01:49:04;;;;;;;14.35;11.45;;;;;;;;;;5035397;28;20453;-70
2023/01/26 01:51:35;;;;;;;17.55;13.07;;;;;;;;;;5036266;28;20396;-70
2023/01/26 01:54:03;;;;;;;16.25;12.32;;;;;;;;;;5035141;28;20045;-69
2023/01/26 01:56:29;;;;;;;17.65;12.32;;;;;;;;;;5035118;28;20037;-71
2023/01/26 01:58:56;;;;;;;16.25;12.52;;;;;;;;;;5035111;28;20482;-71
2023/01/26 02:01:23;;;;;;;12.77;11.10;;;;;;;;;;5035290;28;20467;-71
2023/01/26 02:03:50;;;;;;;16.02;11.77;;;;;;;;;;5034714;28;20097;-71
2023/01/26 02:06:19;;;;;;;15.25;12.18;;;;;;;;;;5018374;28;20517;-71
2023/01/26 02:08:46;;;;;;;14.37;12.00;;;;;;;;;;5035014;28;20426;-70
2023/01/26 02:11:16;;;;;;;18.02;13.25;;;;;;;;;;5034706;28;20399;-71
2023/01/26 02:13:43;;;;;;;17.83;11.95;;;;;;;;;;5036234;28;20037;-71
2023/01/26 02:16:08;;;;;;;14.88;11.15;;;;;;;;;;5034942;28;20503;-70
2023/01/26 02:18:34;;;;;;;14.82;11.68;;;;;;;;;;5034999;28;20124;-70
2023/01/26 02:21:05;;;;;;;13.95;11.68;;;;;;;;;;5034997;28;20029;-70
2023/01/26 02:23:31;;;;;;;16.77;12.35;;;;;;;;;;5018184;28;20036;-70
2023/01/26 02:25:56;;;;;;;16.63;12.45;;;;;;;;;;5034549;28;20029;-70
2023/01/26 02:28:25;;;;;;;17.38;12.38;;;;;;;;;;5018115;28;20045;-70
2023/01/26 02:30:52;;;;;;;16.83;12.93;;;;;;;;;;5034490;28;20022;-70
2023/01/26 02:33:18;;;;;;;16.52;12.55;;;;;;;;;;5034662;28;20038;-70
2023/01/26 02:35:43;;;;;;;15.50;11.25;;;;;;;;;;5034469;28;20033;-71
2023/01/26 02:38:08;;;;;;;16.17;11.90;;;;;;;;;;5035723;28;20461;-70
2023/01/26 02:40:37;;;;;;;14.73;12.05;;;;;;;;;;5035442;28;20029;-70
2023/01/26 02:43:02;;;;;;;16.38;11.77;;;;;;;;;;5034423;28;20060;-69
2023/01/26 02:45:31;;;;;;;15.25;11.68;;;;;;;;;;5034524;28;20488;-70
2023/01/26 02:47:58;;;;;;;16.38;11.63;;;;;;;;;;5034757;28;20120;-66
2023/01/26 02:50:25;;;;;;;15.00;12.07;;;;;;;;;;5068133;28;20112;-67
2023/01/26 02:52:51;;;;;;;16.35;12.65;;;;;;;;;;5074617;28;20040;-73
2023/01/26 02:55:23;;;;;;;18.55;12.68;;;;;;;;;;5074151;28;20115;-68
2023/01/26 02:57:51;;;;;;;17.13;12.48;;;;;;;;;;5074398;28;20036;-67
2023/01/26 03:00:21;;;;;;;15.40;12.05;;;;;;;;;;5075697;28;20452;-67
2023/01/26 03:02:49;;;;;;;17.85;12.65;;;;;;;;;;5074213;28;20420;-69
2023/01/26 03:05:15;;;;;;;16.80;12.25;;;;;;;;;;5075365;28;20070;-69
2023/01/26 03:07:40;;;;;;;14.40;11.45;;;;;;;;;;5074076;28;20457;-70
2023/01/26 03:10:06;;;;;;;18.60;12.40;;;;;;;;;;5074134;28;20032;-69
2023/01/26 03:12:32;;;;;;;15.32;11.68;;;;;;;;;;5074001;28;20027;-66
2023/01/26 03:17:42;;;;;;;15.85;12.30;;;;;;;;;;5073629;28;20473;-67
2023/01/26 03:28:21;;;;;;;15.23;12.07;;;;;;;;;;5073102;28;20029;-67
2023/01/26 03:30:48;;;;;;;19.23;12.90;;;;;;;;;;5090097;28;20039;-67
2023/01/26 03:33:15;;;;;;;17.73;12.88;;;;;;;;;;5056687;28;20051;-67
2023/01/26 03:35:40;;;;;;;15.57;12.18;;;;;;;;;;5073090;28;20063;-67
2023/01/26 03:38:05;;;;;;;16.80;12.95;;;;;;;;;;5074331;28;20056;-67
2023/01/26 03:57:07;;;;;;;14.20;11.20;;;;;;;;;;5073070;28;20040;-69
2023/01/26 03:59:36;;;;;;;17.63;12.80;;;;;;;;;;5072813;28;20051;-69
2023/01/26 04:10:22;;;;;;;17.33;12.45;;;;;;;;;;5072559;28;20028;-71
2023/01/26 04:23:45;;;;;;;15.02;11.57;;;;;;;;;;5072119;28;20044;-70
2023/01/26 04:26:11;;;;;;;14.27;11.48;;;;;;;;;;5072332;28;20387;-69
2023/01/26 04:28:37;;;;;;;17.25;11.70;;;;;;;;;;5072390;28;20029;-67
2023/01/26 04:31:04;;;;;;;16.70;12.00;;;;;;;;;;5055900;28;20074;-68
2023/01/26 04:33:30;;;;;;;16.80;11.88;;;;;;;;;;5055811;28;20070;-68
2023/01/26 04:36:01;;;;;;;14.02;10.75;;;;;;;;;;5073234;28;20028;-68
2023/01/26 04:38:27;;;;;;;15.45;11.45;;;;;;;;;;5056077;28;20380;-67
2023/01/26 04:40:53;;;;;;;15.38;11.55;;;;;;;;;;5072062;28;20478;-70
2023/01/26 04:43:18;;;;;;;16.10;11.48;;;;;;;;;;5072077;28;20537;-70
2023/01/26 04:45:44;;;;;;;15.50;11.95;;;;;;;;;;5071942;28;20059;-72
2023/01/26 04:48:09;;;;;;;12.77;10.73;;;;;;;;;;5072298;28;20154;-71
2023/01/26 04:50:35;;;;;;;14.18;11.30;;;;;;;;;;5072150;28;20053;-71
2023/01/26 04:53:01;;;;;;;15.60;12.05;;;;;;;;;;5072104;28;20044;-72
2023/01/26 04:55:26;;;;;;;15.57;12.52;;;;;;;;;;5072407;28;20496;-72
2023/01/26 04:57:52;;;;;;;16.73;12.23;;;;;;;;;;5088894;28;20120;-72
2023/01/26 05:00:18;;;;;;;15.27;11.98;;;;;;;;;;5072155;28;20034;-71
2023/01/26 05:02:44;;;;;;;14.95;12.35;;;;;;;;;;5071895;28;20025;-69
2023/01/26 05:05:09;;;;;;;14.45;11.48;;;;;;;;;;5089357;28;20078;-72
2023/01/26 05:07:35;;;;;;;15.48;11.90;;;;;;;;;;5072077;28;20021;-69
2023/01/26 05:10:01;;;;;;;14.65;11.70;;;;;;;;;;5072498;28;20120;-71
2023/01/26 05:12:45;;;;;;;14.20;11.50;;;;;;;;;;5072703;28;20027;-71
2023/01/26 05:15:40;;;;;;;15.07;12.43;;;;;;;;;;5063357;28;20037;-69
2023/01/26 05:18:13;;;;;;;16.65;12.30;;;;;;;;;;5055962;28;20025;-70
2023/01/26 05:20:59;;;;;;;14.68;11.50;;;;;;;;;;5071758;28;20391;-69
2023/01/26 05:23:26;;;;;;;15.52;11.90;;;;;;;;;;5073045;28;20025;-69
2023/01/26 05:26:09;;;;;;;15.23;11.70;;;;;;;;;;5072839;28;20515;-69
2023/01/26 05:28:53;;;;;;;16.95;12.48;;;;;;;;;;5071979;28;20518;-69
2023/01/26 05:31:19;;;;;;;17.10;12.95;;;;;;;;;;5071484;28;20028;-69
2023/01/26 05:33:47;;;;;;;15.75;12.20;;;;;;;;;;5071091;28;20024;-69
2023/01/26 05:36:18;;;;;;;18.90;16.08;;;;;;;;;;5071181;28;20029;-69
2023/01/26 05:38:44;;;;;;;21.98;18.58;;;;;;;;;;5072466;28;20039;-71
2023/01/26 05:41:10;;;;;;;83.85;64.75;;;;;;;;;;5070944;28;20029;-70
2023/01/26 05:43:50;;;;;;;15.27;12.32;;;;;;;;;;5071060;28;20037;-70
2023/01/26 05:46:36;;;;;;;15.43;12.27;;;;;;;;;;5072172;28;20115;-70
2023/01/26 05:49:01;;;;;;;17.50;13.20;;;;;;;;;;5071132;28;20483;-71
2023/01/26 05:51:28;;;;;;;16.35;13.13;;;;;;;;;;5087046;28;20028;-71
2023/01/26 05:53:54;;;;;;;17.50;14.05;;;;;;;;;;5054567;28;20043;-70
2023/01/26 05:56:19;;;;;;;14.18;11.48;;;;;;;;;;5072543;28;20047;-70
2023/01/26 05:58:50;;;;;;;13.65;11.27;;;;;;;;;;5071580;28;20078;-70
2023/01/26 06:01:17;;;;;;;16.77;11.77;;;;;;;;;;5071570;28;20032;-70
2023/01/26 06:03:48;;;;;;;16.50;12.60;;;;;;;;;;5071343;28;20029;-71
2023/01/26 06:06:14;;;;;;;16.15;11.75;;;;;;;;;;5071428;28;20032;-71
2023/01/26 06:08:46;;;;;;;21.15;12.57;;;;;;;;;;5088454;28;20039;-71
2023/01/26 06:11:35;;;;;;;18.10;13.82;;;;;;;;;;5065236;28;20043;-71
2023/01/26 06:14:21;;;;;;;23.15;14.38;;;;;;;;;;5075406;28;20036;-71
2023/01/26 06:16:48;;;;;;;17.80;13.45;;;;;;;;;;5074643;28;20480;-71
2023/01/26 06:19:14;;;;;;;25.27;19.80;;;;;;;;;;5074717;28;20032;-71
2023/01/26 06:21:42;;;;;;;28.50;20.33;;;;;;;;;;5074438;28;20119;-68
2023/01/26 06:24:07;;;;;;;46.38;27.77;;;;;;;;;;5074315;28;20159;-68
2023/01/26 06:26:33;;;;;;;24.42;18.50;;;;;;;;;;5074116;28;20040;-71
2023/01/26 06:28:58;;;;;;;21.15;14.85;;;;;;;;;;5057832;28;20044;-72
2023/01/26 06:31:28;;;;;;;20.90;15.68;;;;;;;;;;5058926;28;20047;-72
2023/01/26 06:33:55;;;;;;;28.85;21.52;;;;;;;;;;5057997;28;20028;-72
2023/01/26 06:36:21;;;;;;;27.80;18.60;;;;;;;;;;5074377;28;20400;-72
2023/01/26 06:38:48;;;;;;;45.63;27.05;;;;;;;;;;5090710;28;20399;-72
2023/01/26 06:41:13;;;;;;;47.38;35.20;;;;;;;;;;5055302;28;20021;-72
2023/01/26 06:43:38;;;;;;;23.95;16.38;;;;;;;;;;5071940;28;20443;-72
2023/01/26 06:46:04;;;;;;;19.55;13.68;;;;;;;;;;5073722;28;20047;-72
2023/01/26 06:48:32;;;;;;;18.98;13.25;;;;;;;;;;5072684;28;20024;-72
2023/01/26 06:51:03;;;;;;;14.73;12.05;;;;;;;;;;5072583;28;20062;-72
2023/01/26 06:53:33;;;;;;;18.13;13.23;;;;;;;;;;5054723;28;20090;-72
2023/01/26 06:56:28;;;;;;;15.35;12.55;;;;;;;;;;5064035;28;20435;-72
2023/01/26 06:59:11;;;;;;;33.00;22.15;;;;;;;;;;5072537;28;20052;-72
2023/01/26 07:01:55;;;;;;;56.40;38.05;;;;;;;;;;5073396;28;20042;-72
2023/01/26 07:04:24;;;;;;;21.75;16.60;;;;;;;;;;5072042;28;20036;-72
2023/01/26 07:06:49;;;;;;;23.80;14.82;;;;;;;;;;5072359;28;20028;-72
2023/01/26 07:09:14;;;;;;;31.13;19.48;;;;;;;;;;5072073;28;20019;-71
2023/01/26 07:11:40;;;;;;;46.65;25.60;;;;;;;;;;5074742;28;20036;-71
2023/01/26 07:14:05;;;;;;;40.00;25.25;;;;;;;;;;5090846;28;20027;-71
2023/01/26 07:16:30;;;;;;;35.33;24.77;;;;;;;;;;5075067;28;20042;-71
2023/01/26 07:18:56;;;;;;;43.13;24.17;;;;;;;;;;5073760;28;20028;-71
2023/01/26 07:21:21;;;;;;;30.23;18.92;;;;;;;;;;5073473;28;20037;-71
2023/01/26 07:23:49;;;;;;;21.05;14.48;;;;;;;;;;5056937;28;20024;-71
2023/01/26 07:26:15;;;;;;;21.85;15.25;;;;;;;;;;5073589;28;20036;-71
2023/01/26 07:28:40;;;;;;;23.63;15.63;;;;;;;;;;5090457;28;20032;-72
2023/01/26 07:31:06;;;;;;;23.75;15.52;;;;;;;;;;5073712;28;20092;-71
2023/01/26 07:33:32;;;;;;;22.33;15.60;;;;;;;;;;5074756;28;20020;-72
2023/01/26 07:35:58;;;;;;;24.27;16.75;;;;;;;;;;5074797;28;20043;-73
2023/01/26 07:38:24;;;;;;;31.70;19.08;;;;;;;;;;5074607;28;20028;-73
2023/01/26 07:40:49;;;;;;;47.25;24.83;;;;;;;;;;5074646;28;20426;-74
2023/01/26 07:43:16;;;;;;;46.00;24.08;;;;;;;;;;5074459;28;20059;-73
2023/01/26 07:45:53;;;;;;;36.30;23.20;;;;;;;;;;5073566;28;20016;-73
2023/01/26 07:48:23;;;;;;;40.47;22.88;;;;;;;;;;5073173;28;20024;-71
2023/01/26 07:50:48;;;;;;;29.30;20.08;;;;;;;;;;5056884;28;20089;-71
2023/01/26 07:53:14;;;;;;;35.22;20.88;;;;;;;;;;5072777;28;20131;-71
2023/01/26 07:55:40;;;;;;;36.28;20.10;;;;;;;;;;5073086;28;20121;-71
2023/01/26 07:58:05;;;;;;;46.92;24.23;;;;;;;;;;4664151;22;20344;-72
2023/01/26 08:00:30;;;;;;;41.90;22.95;;;;;;;;;;5066289;23;20421;-72
2023/01/26 08:02:59;;;;;;;34.42;19.63;;;;;;;;;;5054118;28;20535;-71
2023/01/26 08:05:24;;;;;;;48.17;28.60;;;;;;;;;;5053233;28;20041;-71
2023/01/26 08:07:49;;;;;;;40.28;23.70;;;;;;;;;;5054119;28;20080;-71
2023/01/26 08:10:15;;;;;;;49.70;28.83;;;;;;;;;;5052863;28;20025;-71
2023/01/26 08:12:40;;;;;;;29.90;18.77;;;;;;;;;;5053451;28;20060;-70
2023/01/26 08:15:05;;;;;;;26.00;17.92;;;;;;;;;;5053112;28;20115;-71
2023/01/26 08:17:32;;;;;;;25.02;17.88;;;;;;;;;;5054248;28;20096;-71
2023/01/26 08:19:58;;;;;;;28.33;18.25;;;;;;;;;;5052672;28;20179;-71
2023/01/26 08:22:24;;;;;;;33.50;21.77;;;;;;;;;;5053816;28;20492;-71
2023/01/26 08:24:49;;;;;;;29.58;20.10;;;;;;;;;;5053770;28;20098;-71
2023/01/26 08:27:16;;;;;;;36.95;26.30;;;;;;;;;;5069181;28;20076;-71
2023/01/26 08:29:41;;;;;;;86.45;77.45;;;;;;;;;;5052608;28;20469;-71
2023/01/26 08:32:07;;;;;;;29.50;21.45;;;;;;;;;;5053104;28;20032;-71
2023/01/26 08:34:34;;;;;;;33.22;23.83;;;;;;;;;;5053635;28;20051;-71
2023/01/26 08:37:01;;;;;;;28.98;20.50;;;;;;;;;;5052794;28;20025;-71
2023/01/26 08:39:27;;;;;;;24.92;17.48;;;;;;;;;;5053842;28;20465;-71
2023/01/26 08:41:52;;;;;;;26.75;18.33;;;;;;;;;;5052403;28;20028;-71
2023/01/26 08:44:17;;;;;;;27.13;17.05;;;;;;;;;;5053457;28;20052;-71
2023/01/26 08:46:43;;;;;;;25.88;17.13;;;;;;;;;;5053555;28;20566;-71
2023/01/26 08:49:08;;;;;;;23.80;15.85;;;;;;;;;;5052225;28;20033;-71
2023/01/26 08:51:33;;;;;;;25.17;18.35;;;;;;;;;;5053773;28;20017;-71
2023/01/26 08:53:59;;;;;;;30.17;19.67;;;;;;;;;;5053468;28;20036;-71
2023/01/26 08:56:24;;;;;;;27.70;19.17;;;;;;;;;;5052285;28;20377;-71
2023/01/26 08:58:50;;;;;;;37.22;27.75;;;;;;;;;;5053695;28;20116;-72
2023/01/26 09:01:17;;;;;;;35.20;26.45;;;;;;;;;;5053471;28;20064;-71
2023/01/26 09:03:43;;;;;;;39.15;27.17;;;;;;;;;;5053812;28;20029;-71
2023/01/26 09:06:09;;;;;;;32.10;21.83;;;;;;;;;;5036170;28;20029;-71
2023/01/26 09:08:36;;;;;;;26.88;20.17;;;;;;;;;;5035837;28;20136;-71
2023/01/26 09:11:01;;;;;;;34.95;24.83;;;;;;;;;;5036094;28;20029;-71
2023/01/26 09:13:27;;;;;;;42.42;31.67;;;;;;;;;;5019117;28;20036;-71
2023/01/26 09:15:54;;;;;;;24.20;16.92;;;;;;;;;;5053246;28;20068;-71
2023/01/26 09:18:19;;;;;;;44.10;30.35;;;;;;;;;;5035742;28;20124;-71
2023/01/26 09:20:45;;;;;;;35.53;21.35;;;;;;;;;;5035756;28;20485;-71
2023/01/26 09:23:11;;;;;;;25.90;16.67;;;;;;;;;;5035654;28;20108;-71
2023/01/26 09:25:37;;;;;;;30.92;17.60;;;;;;;;;;5035605;28;20060;-71
2023/01/26 09:28:03;;;;;;;28.75;17.00;;;;;;;;;;5053346;28;20032;-70
2023/01/26 09:30:29;;;;;;;23.30;15.80;;;;;;;;;;5019089;28;20507;-71
2023/01/26 09:32:58;;;;;;;23.00;16.23;;;;;;;;;;5053072;28;20057;-71
2023/01/26 09:35:23;;;;;;;21.45;15.63;;;;;;;;;;5053280;28;20025;-71
2023/01/26 09:37:48;;;;;;;25.30;17.02;;;;;;;;;;5053061;28;20036;-71
2023/01/26 09:40:19;;;;;;;45.65;24.58;;;;;;;;;;5053276;28;20108;-71
2023/01/26 09:43:00;;;;;;;33.28;20.55;;;;;;;;;;5035737;28;20115;-71
2023/01/26 09:45:29;;;;;;;23.63;16.17;;;;;;;;;;5056777;28;20025;-71
2023/01/26 09:48:01;;;;;;;21.52;16.08;;;;;;;;;;5056763;28;20116;-71
2023/01/26 09:50:28;;;;;;;19.35;13.70;;;;;;;;;;5038866;28;20033;-71
2023/01/26 09:52:56;;;;;;;19.80;14.73;;;;;;;;;;5056907;28;20052;-71
2023/01/26 09:55:23;;;;;;;22.80;16.45;;;;;;;;;;5056928;28;20017;-71
2023/01/26 09:57:58;;;;;;;24.30;16.27;;;;;;;;;;5056557;28;20040;-71
2023/01/26 10:00:29;;;;;;;18.73;14.18;;;;;;;;;;5056520;28;20072;-71
2023/01/26 10:03:15;;;;;;;19.90;14.45;;;;;;;;;;5056406;28;20035;-71
2023/01/26 10:05:43;;;;;;;30.75;20.77;;;;;;;;;;5055277;28;20025;-71
2023/01/26 10:08:11;;;;;;;27.50;19.42;;;;;;;;;;5057021;28;20083;-71
2023/01/26 10:10:43;;;;;;;24.08;17.25;;;;;;;;;;5055243;28;20028;-71
2023/01/26 10:13:12;;;;;;;23.27;15.95;;;;;;;;;;5055531;28;20037;-71
2023/01/26 10:15:39;;;;;;;21.02;15.57;;;;;;;;;;5056888;28;20033;-71
2023/01/26 10:18:07;;;;;;;23.73;16.52;;;;;;;;;;5057111;28;20033;-72
2023/01/26 10:20:34;;;;;;;24.92;16.77;;;;;;;;;;5065486;22;20053;-71
2023/01/26 10:23:10;;;;;;;25.23;16.75;;;;;;;;;;5056069;28;20025;-71
2023/01/26 10:25:38;;;;;;;23.17;16.55;;;;;;;;;;5038251;28;20025;-71
2023/01/26 10:28:12;;;;;;;25.75;16.90;;;;;;;;;;5056191;28;20108;-71
2023/01/26 10:30:38;;;;;;;25.17;16.73;;;;;;;;;;5056141;28;20389;-72
2023/01/26 10:33:11;;;;;;;26.00;17.58;;;;;;;;;;5055939;28;20036;-71
2023/01/26 10:35:37;;;;;;;26.52;18.08;;;;;;;;;;5055703;28;20393;-71
2023/01/26 10:38:02;;;;;;;30.45;20.27;;;;;;;;;;5054552;28;20025;-71
2023/01/26 10:40:27;;;;;;;32.88;20.55;;;;;;;;;;5055788;28;20025;-71
2023/01/26 10:42:56;;;;;;;31.13;19.02;;;;;;;;;;5054488;28;20036;-71
2023/01/26 10:45:24;;;;;;;28.00;19.15;;;;;;;;;;5054541;28;20469;-71
2023/01/26 10:48:09;;;;;;;25.88;17.05;;;;;;;;;;5055671;28;20040;-71
2023/01/26 10:50:35;;;;;;;25.45;16.70;;;;;;;;;;5047209;28;20116;-71
2023/01/26 10:53:03;;;;;;;25.55;16.98;;;;;;;;;;5054304;28;20540;-71
2023/01/26 10:55:30;;;;;;;25.70;20.20;;;;;;;;;;5054869;28;20028;-71
2023/01/26 10:57:55;;;;;;;27.15;18.77;;;;;;;;;;5070882;28;20017;-70
2023/01/26 11:00:20;;;;;;;25.00;16.95;;;;;;;;;;5055413;28;20036;-70
2023/01/26 11:02:53;;;;;;;27.23;18.40;;;;;;;;;;5055512;28;20134;-71
2023/01/26 11:05:23;;;;;;;50.85;37.22;;;;;;;;;;5054042;28;20055;-71
2023/01/26 11:07:54;;;;;;;34.57;26.90;;;;;;;;;;5055389;28;20033;-71
2023/01/26 11:10:19;;;;;;;76.63;59.08;;;;;;;;;;5053955;28;20032;-71
2023/01/26 11:12:45;;;;;;;42.03;29.25;;;;;;;;;;5053898;28;20028;-71
2023/01/26 11:15:24;;;;;;;44.40;31.80;;;;;;;;;;5055162;28;20039;-71
2023/01/26 11:17:57;;;;;;;36.05;27.40;;;;;;;;;;5055062;28;20045;-71
2023/01/26 11:20:34;;;;;;;24.30;17.40;;;;;;;;;;5054937;28;20037;-71
2023/01/26 11:23:03;;;;;;;22.00;15.48;;;;;;;;;;5054905;28;20067;-71
2023/01/26 11:25:31;;;;;;;26.05;17.38;;;;;;;;;;5037111;28;20037;-71
2023/01/26 11:28:23;;;;;;;19.48;15.43;;;;;;;;;;5054909;28;20040;-71
2023/01/26 11:30:48;;;;;;;26.10;17.85;;;;;;;;;;5051397;28;20665;-71
2023/01/26 11:33:24;;;;;;;28.45;18.23;;;;;;;;;;5053528;28;20104;-71
2023/01/26 11:35:59;;;;;;;28.08;19.08;;;;;;;;;;5054762;28;20047;-71
2023/01/26 11:38:30;;;;;;;23.88;15.18;;;;;;;;;;5053413;28;20485;-71
2023/01/26 11:41:16;;;;;;;23.70;15.43;;;;;;;;;;5053562;28;20058;-71
2023/01/26 11:43:42;;;;;;;30.67;19.30;;;;;;;;;;5053064;28;20064;-71
2023/01/26 11:46:13;;;;;;;28.25;17.77;;;;;;;;;;5054589;28;20052;-71
2023/01/26 11:48:57;;;;;;;24.23;15.57;;;;;;;;;;5053207;28;20043;-71
2023/01/26 11:51:38;;;;;;;28.48;16.70;;;;;;;;;;5053178;28;20017;-71
2023/01/26 11:54:22;;;;;;;37.08;22.25;;;;;;;;;;5054476;28;20033;-71
2023/01/26 11:56:48;;;;;;;40.80;23.80;;;;;;;;;;5054390;28;20036;-71
2023/01/26 11:59:21;;;;;;;34.40;23.58;;;;;;;;;;5053066;28;20032;-71
2023/01/26 12:01:49;;;;;;;46.92;27.33;;;;;;;;;;5052995;28;20033;-71
2023/01/26 12:04:19;;;;;;;34.25;21.83;;;;;;;;;;5054226;28;20029;-71
2023/01/26 12:06:46;;;;;;;67.38;43.33;;;;;;;;;;5053297;28;20040;-71
2023/01/26 12:09:31;;;;;;;39.83;28.67;;;;;;;;;;5054089;28;20017;-71
2023/01/26 12:12:00;;;;;;;24.00;15.50;;;;;;;;;;5052749;28;20032;-71
2023/01/26 12:14:35;;;;;;;21.08;15.30;;;;;;;;;;5036117;28;20465;-71
2023/01/26 12:17:00;;;;;;;26.63;17.63;;;;;;;;;;5052986;28;20044;-71
2023/01/26 12:19:26;;;;;;;46.58;22.77;;;;;;;;;;5053874;28;20041;-71
2023/01/26 12:21:53;;;;;;;76.00;30.15;;;;;;;;;;5052904;28;20484;-71
2023/01/26 12:24:21;;;;;;;37.38;19.98;;;;;;;;;;5036036;28;20036;-71
2023/01/26 12:26:51;;;;;;;28.67;19.30;;;;;;;;;;5053907;28;20116;-71
2023/01/26 12:29:22;;;;;;;36.45;21.77;;;;;;;;;;5052737;28;20052;-71
2023/01/26 12:31:57;;;;;;;28.13;17.17;;;;;;;;;;5053765;28;20049;-71
2023/01/26 12:34:27;;;;;;;32.55;19.73;;;;;;;;;;5053684;28;20108;-71
2023/01/26 12:36:55;;;;;;;31.25;19.08;;;;;;;;;;5053659;28;20119;-71
2023/01/26 12:39:39;;;;;;;39.47;26.10;;;;;;;;;;5052543;28;20028;-71
2023/01/26 12:42:05;;;;;;;32.80;20.75;;;;;;;;;;5053634;28;20095;-71
2023/01/26 12:44:45;;;;;;;27.63;16.23;;;;;;;;;;5052243;28;20108;-71
2023/01/26 12:47:10;;;;;;;27.05;18.10;;;;;;;;;;5052304;28;20045;-71
2023/01/26 12:49:36;;;;;;;27.67;17.75;;;;;;;;;;5053456;28;20489;-71
2023/01/26 12:52:05;;;;;;;29.90;18.83;;;;;;;;;;5052181;28;20120;-71
2023/01/26 12:54:36;;;;;;;31.02;22.48;;;;;;;;;;5053425;28;20453;-71
2023/01/26 12:57:03;;;;;;;29.10;18.95;;;;;;;;;;5052206;28;20079;-71
2023/01/26 12:59:34;;;;;;;26.70;18.92;;;;;;;;;;5052345;28;20056;-72
2023/01/26 13:02:29;;;;;;;26.50;16.98;;;;;;;;;;5053339;28;20064;-72
2023/01/26 13:04:56;;;;;;;30.08;17.67;;;;;;;;;;5043661;28;20045;-72
2023/01/26 13:07:32;;;;;;;61.65;41.88;;;;;;;;;;5051753;28;20021;-72
2023/01/26 13:10:08;;;;;;;52.50;35.35;;;;;;;;;;5052042;28;20128;-72
2023/01/26 13:12:50;;;;;;;20.48;15.70;;;;;;;;;;5052394;28;20036;-72
2023/01/26 13:15:34;;;;;;;21.83;15.63;;;;;;;;;;5051611;28;20037;-72
2023/01/26 13:18:03;;;;;;;28.85;17.83;;;;;;;;;;5052523;28;20025;-72
2023/01/26 13:20:41;;;;;;;24.23;16.80;;;;;;;;;;5055082;28;20051;-72
2023/01/26 13:23:25;;;;;;;34.40;23.33;;;;;;;;;;5056142;28;20075;-72
2023/01/26 13:26:09;;;;;;;43.40;31.85;;;;;;;;;;5055014;28;20032;-72
2023/01/26 13:28:35;;;;;;;29.10;18.58;;;;;;;;;;5056134;28;20108;-72
2023/01/26 13:31:05;;;;;;;30.40;23.05;;;;;;;;;;5056122;28;20096;-72
2023/01/26 13:33:30;;;;;;;32.83;22.75;;;;;;;;;;5054824;28;20033;-72
2023/01/26 13:35:57;;;;;;;31.45;21.13;;;;;;;;;;5054771;28;20027;-72
2023/01/26 13:38:28;;;;;;;27.05;19.90;;;;;;;;;;5054678;28;20183;-73
2023/01/26 13:40:53;;;;;;;33.45;22.75;;;;;;;;;;5056178;28;20061;-73
2023/01/26 13:43:26;;;;;;;30.50;20.80;;;;;;;;;;5037991;28;20130;-72
2023/01/26 13:46:00;;;;;;;27.17;18.88;;;;;;;;;;5038749;28;20025;-73
2023/01/26 13:48:38;;;;;;;29.88;21.83;;;;;;;;;;5037987;28;20459;-73
2023/01/26 13:51:14;;;;;;;32.92;22.90;;;;;;;;;;5039040;28;20032;-72
2023/01/26 13:54:01;;;;;;;23.60;17.08;;;;;;;;;;5056032;28;20029;-73
2023/01/26 13:56:29;;;;;;;20.48;15.18;;;;;;;;;;5055209;28;20123;-73
2023/01/26 13:59:01;;;;;;;23.65;16.15;;;;;;;;;;5055718;28;20036;-73
2023/01/26 14:01:27;;;;;;;25.35;16.55;;;;;;;;;;5037676;28;20043;-73
2023/01/26 14:04:02;;;;;;;25.83;17.65;;;;;;;;;;5060444;28;20033;-72
2023/01/26 14:06:30;;;;;;;133.18;83.63;;;;;;;;;;5070890;28;20029;-72
2023/01/26 14:08:58;;;;;;;25.13;17.25;;;;;;;;;;5061473;28;20033;-71
2023/01/26 14:11:25;;;;;;;126.88;79.03;;;;;;;;;;5037315;28;20041;-71
2023/01/26 14:13:58;;;;;;;247.88;134.95;;;;;;;;;;5055788;28;20037;-71
2023/01/26 14:16:27;;;;;;;82.30;44.10;;;;;;;;;;5038113;28;20559;-72
2023/01/26 14:19:02;;;;;;;170.60;78.60;;;;;;;;;;5055207;28;20039;-71
2023/01/26 14:21:27;;;;;;;244.23;116.63;;;;;;;;;;5037827;28;20037;-71
2023/01/26 14:23:55;;;;;;;49.38;33.22;;;;;;;;;;5055869;28;20033;-72
2023/01/26 14:26:30;;;;;;;150.50;83.97;;;;;;;;;;5037945;28;20456;-72
2023/01/26 14:28:56;;;;;;;189.75;103.07;;;;;;;;;;5037345;28;20025;-69
2023/01/26 14:31:22;;;;;;;132.82;70.13;;;;;;;;;;5037384;28;20495;-71
2023/01/26 14:33:50;;;;;;;25.17;16.80;;;;;;;;;;5055494;28;20025;-71
2023/01/26 14:36:17;;;;;;;29.80;20.67;;;;;;;;;;5055801;28;20155;-71
2023/01/26 14:38:46;;;;;;;124.03;104.30;;;;;;;;;;5037127;28;20029;-71
2023/01/26 14:41:19;;;;;;;47.20;33.03;;;;;;;;;;5036746;28;20040;-71
2023/01/26 14:43:47;;;;;;;42.78;25.00;;;;;;;;;;5053960;28;20025;-71
2023/01/26 14:46:17;;;;;;;48.60;29.25;;;;;;;;;;5054840;28;20036;-71
2023/01/26 14:48:46;;;;;;;53.70;31.63;;;;;;;;;;5055221;28;20040;-71
2023/01/26 14:51:16;;;;;;;39.75;24.35;;;;;;;;;;5054080;28;20029;-72
2023/01/26 14:53:47;;;;;;;41.00;23.50;;;;;;;;;;5053388;28;20546;-73
2023/01/26 14:56:16;;;;;;;45.28;25.77;;;;;;;;;;5024192;28;20385;-72
2023/01/26 14:58:41;;;;;;;47.05;26.60;;;;;;;;;;5034893;28;20140;-73
2023/01/26 15:01:07;;;;;;;46.28;24.55;;;;;;;;;;5016944;28;20060;-73
2023/01/26 15:03:36;;;;;;;46.25;27.08;;;;;;;;;;5017593;28;20466;-73
2023/01/26 15:06:03;;;;;;;44.80;27.33;;;;;;;;;;5033770;28;20100;-73
2023/01/26 15:08:29;;;;;;;49.33;28.42;;;;;;;;;;5034840;28;20036;-72
2023/01/26 15:10:54;;;;;;;48.70;29.83;;;;;;;;;;5034456;28;20021;-72
2023/01/26 15:13:20;;;;;;;50.08;29.95;;;;;;;;;;5016005;28;20112;-72